sensor_id;sensor_type;location;lat;lon;timestamp;P1;durP1;ratioP1;P2;durP2;ratioP2
52396;SDS011;38322;53.108;6.308;2022-09-09T05:02:37;10.95;;;6.53;;
52396;SDS011;38322;53.108;6.308;2022-09-09T05:05:04;5.65;;;5.10;;
52396;SDS011;38322;53.108;6.308;2022-09-09T05:07:30;6.63;;;5.18;;
52396;SDS011;38322;53.108;6.308;2022-09-09T05:09:56;7.95;;;5.85;;
52396;SDS011;38322;53.108;6.308;2022-09-09T05:12:23;7.50;;;5.03;;
52396;SDS011;38322;53.108;6.308;2022-09-09T05:14:51;8.00;;;5.00;;
52396;SDS011;38322;53.108;6.308;2022-09-09T05:17:17;8.75;;;6.05;;
52396;SDS011;38322;53.108;6.308;2022-09-09T05:19:43;6.60;;;4.72;;
52396;SDS011;38322;53.108;6.308;2022-09-09T05:22:09;6.53;;;5.88;;
52396;SDS011;38322;53.108;6.308;2022-09-09T05:24:37;6.00;;;5.40;;
52396;SDS011;38322;53.108;6.308;2022-09-09T05:27:03;8.00;;;5.80;;
52396;SDS011;38322;53.108;6.308;2022-09-09T05:29:31;6.15;;;5.47;;
52396;SDS011;38322;53.108;6.308;2022-09-09T05:31:59;6.65;;;5.82;;
52396;SDS011;38322;53.108;6.308;2022-09-09T05:34:25;7.38;;;6.60;;
52396;SDS011;38322;53.108;6.308;2022-09-09T05:36:51;8.02;;;6.47;;
52396;SDS011;38322;53.108;6.308;2022-09-09T05:39:17;11.30;;;7.47;;
52396;SDS011;38322;53.108;6.308;2022-09-09T05:41:43;7.85;;;5.43;;
52396;SDS011;38322;53.108;6.308;2022-09-09T05:44:09;7.35;;;5.35;;
52396;SDS011;38322;53.108;6.308;2022-09-09T05:46:35;8.23;;;5.40;;
52396;SDS011;38322;53.108;6.308;2022-09-09T05:49:01;6.53;;;5.55;;
52396;SDS011;38322;53.108;6.308;2022-09-09T05:51:28;6.95;;;5.57;;
52396;SDS011;38322;53.108;6.308;2022-09-09T05:53:55;7.45;;;5.47;;
52396;SDS011;38322;53.108;6.308;2022-09-09T05:56:26;6.90;;;6.28;;
52396;SDS011;38322;53.108;6.308;2022-09-09T05:58:53;10.55;;;6.32;;
52396;SDS011;38322;53.108;6.308;2022-09-09T06:01:22;8.68;;;7.70;;
52396;SDS011;38322;53.108;6.308;2022-09-09T06:03:51;8.77;;;7.60;;
52396;SDS011;38322;53.108;6.308;2022-09-09T06:06:19;9.55;;;7.05;;
52396;SDS011;38322;53.108;6.308;2022-09-09T06:08:47;8.52;;;7.43;;
52396;SDS011;38322;53.108;6.308;2022-09-09T06:11:17;8.73;;;7.53;;
52396;SDS011;38322;53.108;6.308;2022-09-09T06:13:45;8.73;;;7.22;;
52396;SDS011;38322;53.108;6.308;2022-09-09T06:16:13;11.07;;;7.78;;
52396;SDS011;38322;53.108;6.308;2022-09-09T06:18:41;10.02;;;7.65;;
52396;SDS011;38322;53.108;6.308;2022-09-09T06:21:09;8.25;;;5.90;;
52396;SDS011;38322;53.108;6.308;2022-09-09T06:23:44;6.38;;;5.75;;
52396;SDS011;38322;53.108;6.308;2022-09-09T06:26:11;7.57;;;5.88;;
52396;SDS011;38322;53.108;6.308;2022-09-09T06:28:41;8.27;;;5.53;;
52396;SDS011;38322;53.108;6.308;2022-09-09T06:31:09;7.75;;;6.53;;
52396;SDS011;38322;53.108;6.308;2022-09-09T06:33:37;8.63;;;5.68;;
52396;SDS011;38322;53.108;6.308;2022-09-09T06:36:07;6.65;;;6.03;;
52396;SDS011;38322;53.108;6.308;2022-09-09T06:38:36;10.05;;;6.35;;
52396;SDS011;38322;53.108;6.308;2022-09-09T06:41:02;8.85;;;6.63;;
52396;SDS011;38322;53.108;6.308;2022-09-09T06:43:31;7.25;;;6.55;;
52396;SDS011;38322;53.108;6.308;2022-09-09T06:45:59;9.45;;;5.90;;
52396;SDS011;38322;53.108;6.308;2022-09-09T06:48:27;7.15;;;6.32;;
52396;SDS011;38322;53.108;6.308;2022-09-09T06:51:01;6.22;;;5.40;;
52396;SDS011;38322;53.108;6.308;2022-09-09T06:53:32;7.25;;;6.13;;
52396;SDS011;38322;53.108;6.308;2022-09-09T06:56:01;9.27;;;6.53;;
52396;SDS011;38322;53.108;6.308;2022-09-09T06:58:28;7.82;;;5.38;;
52396;SDS011;38322;53.108;6.308;2022-09-09T07:01:01;6.32;;;5.57;;
52396;SDS011;38322;53.108;6.308;2022-09-09T07:03:28;7.13;;;5.18;;
52396;SDS011;38322;53.108;6.308;2022-09-09T07:05:55;8.73;;;5.90;;
52396;SDS011;38322;53.108;6.308;2022-09-09T07:08:21;7.72;;;5.35;;
52396;SDS011;38322;53.108;6.308;2022-09-09T07:10:47;6.50;;;4.75;;
52396;SDS011;38322;53.108;6.308;2022-09-09T07:13:13;7.25;;;6.22;;
52396;SDS011;38322;53.108;6.308;2022-09-09T07:15:41;8.80;;;6.18;;
52396;SDS011;38322;53.108;6.308;2022-09-09T07:18:07;6.60;;;5.32;;
52396;SDS011;38322;53.108;6.308;2022-09-09T07:20:35;6.05;;;5.35;;
52396;SDS011;38322;53.108;6.308;2022-09-09T07:23:01;7.03;;;5.53;;
52396;SDS011;38322;53.108;6.308;2022-09-09T07:25:26;5.63;;;4.97;;
52396;SDS011;38322;53.108;6.308;2022-09-09T07:27:55;7.65;;;5.03;;
52396;SDS011;38322;53.108;6.308;2022-09-09T07:30:21;9.43;;;5.57;;
52396;SDS011;38322;53.108;6.308;2022-09-09T07:32:47;6.00;;;4.70;;
52396;SDS011;38322;53.108;6.308;2022-09-09T07:35:13;6.25;;;5.65;;
52396;SDS011;38322;53.108;6.308;2022-09-09T07:37:38;7.45;;;6.45;;
52396;SDS011;38322;53.108;6.308;2022-09-09T07:40:04;8.50;;;5.40;;
52396;SDS011;38322;53.108;6.308;2022-09-09T07:42:31;8.10;;;6.00;;
52396;SDS011;38322;53.108;6.308;2022-09-09T07:44:56;6.57;;;4.95;;
52396;SDS011;38322;53.108;6.308;2022-09-09T07:47:22;5.57;;;5.07;;
52396;SDS011;38322;53.108;6.308;2022-09-09T07:49:49;6.90;;;4.25;;
52396;SDS011;38322;53.108;6.308;2022-09-09T07:52:15;6.07;;;4.47;;
52396;SDS011;38322;53.108;6.308;2022-09-09T07:54:41;5.38;;;4.45;;
52396;SDS011;38322;53.108;6.308;2022-09-09T07:57:07;7.80;;;4.18;;
52396;SDS011;38322;53.108;6.308;2022-09-09T07:59:33;5.35;;;3.95;;
52396;SDS011;38322;53.108;6.308;2022-09-09T08:01:59;7.75;;;5.18;;
52396;SDS011;38322;53.108;6.308;2022-09-09T08:04:25;6.05;;;4.45;;
52396;SDS011;38322;53.108;6.308;2022-09-09T08:06:54;5.32;;;3.33;;
52396;SDS011;38322;53.108;6.308;2022-09-09T08:09:23;4.75;;;4.18;;
52396;SDS011;38322;53.108;6.308;2022-09-09T08:11:52;6.95;;;4.28;;
52396;SDS011;38322;53.108;6.308;2022-09-09T08:14:18;7.10;;;4.82;;
52396;SDS011;38322;53.108;6.308;2022-09-09T08:16:45;5.57;;;4.30;;
52396;SDS011;38322;53.108;6.308;2022-09-09T08:19:12;7.85;;;4.55;;
52396;SDS011;38322;53.108;6.308;2022-09-09T08:21:40;6.32;;;4.28;;
52396;SDS011;38322;53.108;6.308;2022-09-09T08:24:08;7.25;;;4.30;;
52396;SDS011;38322;53.108;6.308;2022-09-09T08:26:37;9.95;;;4.07;;
52396;SDS011;38322;53.108;6.308;2022-09-09T08:29:06;6.43;;;4.60;;
52396;SDS011;38322;53.108;6.308;2022-09-09T08:31:35;6.03;;;3.47;;
52396;SDS011;38322;53.108;6.308;2022-09-09T08:34:03;4.50;;;4.00;;
52396;SDS011;38322;53.108;6.308;2022-09-09T08:36:30;4.93;;;4.00;;
52396;SDS011;38322;53.108;6.308;2022-09-09T08:38:58;6.68;;;3.60;;
52396;SDS011;38322;53.108;6.308;2022-09-09T08:41:39;7.80;;;4.38;;
52396;SDS011;38322;53.108;6.308;2022-09-09T08:44:09;8.13;;;4.45;;
52396;SDS011;38322;53.108;6.308;2022-09-09T08:52:14;7.00;;;4.30;;
52396;SDS011;38322;53.108;6.308;2022-09-09T08:54:44;9.90;;;4.80;;
52396;SDS011;38322;53.108;6.308;2022-09-09T08:57:14;7.47;;;4.70;;
52396;SDS011;38322;53.108;6.308;2022-09-09T08:59:48;9.50;;;4.10;;
52396;SDS011;38322;53.108;6.308;2022-09-09T09:02:17;10.38;;;4.28;;
52396;SDS011;38322;53.108;6.308;2022-09-09T09:12:19;9.35;;;3.40;;
52396;SDS011;38322;53.108;6.308;2022-09-09T09:14:48;7.53;;;4.18;;
52396;SDS011;38322;53.108;6.308;2022-09-09T09:17:20;5.78;;;2.72;;
52396;SDS011;38322;53.108;6.308;2022-09-09T09:19:49;8.63;;;3.53;;
52396;SDS011;38322;53.108;6.308;2022-09-09T09:27:32;8.00;;;3.72;;
52396;SDS011;38322;53.108;6.308;2022-09-09T09:30:01;8.70;;;3.25;;
52396;SDS011;38322;53.108;6.308;2022-09-09T09:32:38;10.27;;;3.15;;
52396;SDS011;38322;53.108;6.308;2022-09-09T09:35:10;7.72;;;2.58;;
52396;SDS011;38322;53.108;6.308;2022-09-09T09:37:39;7.97;;;2.55;;
52396;SDS011;38322;53.108;6.308;2022-09-09T09:40:10;11.57;;;2.78;;
52396;SDS011;38322;53.108;6.308;2022-09-09T09:42:38;4.50;;;1.92;;
52396;SDS011;38322;53.108;6.308;2022-09-09T09:45:16;6.30;;;2.42;;
52396;SDS011;38322;53.108;6.308;2022-09-09T09:47:57;8.88;;;3.13;;
52396;SDS011;38322;53.108;6.308;2022-09-09T09:50:23;12.85;;;2.55;;
52396;SDS011;38322;53.108;6.308;2022-09-09T09:52:54;7.85;;;2.50;;
52396;SDS011;38322;53.108;6.308;2022-09-09T09:55:22;7.78;;;2.33;;
52396;SDS011;38322;53.108;6.308;2022-09-09T09:57:49;8.02;;;2.38;;
52396;SDS011;38322;53.108;6.308;2022-09-09T10:00:16;11.15;;;3.47;;
52396;SDS011;38322;53.108;6.308;2022-09-09T10:02:44;8.95;;;2.80;;
52396;SDS011;38322;53.108;6.308;2022-09-09T10:05:24;7.45;;;2.60;;
52396;SDS011;38322;53.108;6.308;2022-09-09T10:13:15;11.70;;;3.08;;
52396;SDS011;38322;53.108;6.308;2022-09-09T10:15:58;5.75;;;2.38;;
52396;SDS011;38322;53.108;6.308;2022-09-09T10:18:54;7.68;;;1.85;;
52396;SDS011;38322;53.108;6.308;2022-09-09T10:21:42;4.13;;;1.77;;
52396;SDS011;38322;53.108;6.308;2022-09-09T10:29:40;8.85;;;1.42;;
52396;SDS011;38322;53.108;6.308;2022-09-09T10:34:56;7.32;;;1.92;;
52396;SDS011;38322;53.108;6.308;2022-09-09T10:40:23;6.20;;;1.45;;
52396;SDS011;38322;53.108;6.308;2022-09-09T10:43:04;6.07;;;1.58;;
52396;SDS011;38322;53.108;6.308;2022-09-09T10:45:38;5.68;;;1.38;;
52396;SDS011;38322;53.108;6.308;2022-09-09T10:48:16;4.38;;;1.50;;
52396;SDS011;38322;53.108;6.308;2022-09-09T10:53:47;2.45;;;1.23;;
52396;SDS011;38322;53.108;6.308;2022-09-09T10:56:19;3.08;;;1.48;;
52396;SDS011;38322;53.108;6.308;2022-09-09T10:58:56;4.53;;;0.90;;
52396;SDS011;38322;53.108;6.308;2022-09-09T11:01:30;7.65;;;1.02;;
52396;SDS011;38322;53.108;6.308;2022-09-09T11:04:05;4.68;;;1.67;;
52396;SDS011;38322;53.108;6.308;2022-09-09T11:06:43;2.42;;;0.98;;
52396;SDS011;38322;53.108;6.308;2022-09-09T11:09:15;4.57;;;1.60;;
52396;SDS011;38322;53.108;6.308;2022-09-09T11:11:51;5.22;;;1.30;;
52396;SDS011;38322;53.108;6.308;2022-09-09T11:14:22;4.95;;;0.90;;
52396;SDS011;38322;53.108;6.308;2022-09-09T11:16:57;4.88;;;0.90;;
52396;SDS011;38322;53.108;6.308;2022-09-09T11:19:29;5.93;;;1.10;;
52396;SDS011;38322;53.108;6.308;2022-09-09T11:22:00;4.50;;;1.20;;
52396;SDS011;38322;53.108;6.308;2022-09-09T11:24:33;3.67;;;1.02;;
52396;SDS011;38322;53.108;6.308;2022-09-09T11:27:11;5.10;;;1.35;;
52396;SDS011;38322;53.108;6.308;2022-09-09T11:29:49;2.55;;;1.05;;
52396;SDS011;38322;53.108;6.308;2022-09-09T11:32:39;10.18;;;1.33;;
52396;SDS011;38322;53.108;6.308;2022-09-09T11:40:55;2.97;;;0.70;;
52396;SDS011;38322;53.108;6.308;2022-09-09T11:43:28;3.53;;;1.55;;
52396;SDS011;38322;53.108;6.308;2022-09-09T11:45:59;5.15;;;1.08;;
52396;SDS011;38322;53.108;6.308;2022-09-09T11:50:57;6.70;;;1.17;;
52396;SDS011;38322;53.108;6.308;2022-09-09T11:53:30;5.75;;;0.70;;
52396;SDS011;38322;53.108;6.308;2022-09-09T11:56:08;4.55;;;0.82;;
52396;SDS011;38322;53.108;6.308;2022-09-09T11:58:38;8.68;;;1.58;;
52396;SDS011;38322;53.108;6.308;2022-09-09T12:01:13;6.68;;;1.50;;
52396;SDS011;38322;53.108;6.308;2022-09-09T12:08:46;3.20;;;0.80;;
52396;SDS011;38322;53.108;6.308;2022-09-09T12:11:29;6.22;;;0.80;;
52396;SDS011;38322;53.108;6.308;2022-09-09T12:13:56;5.68;;;0.82;;
52396;SDS011;38322;53.108;6.308;2022-09-09T12:16:29;9.52;;;1.45;;
52396;SDS011;38322;53.108;6.308;2022-09-09T12:21:40;3.60;;;1.00;;
52396;SDS011;38322;53.108;6.308;2022-09-09T12:24:17;4.15;;;0.95;;
52396;SDS011;38322;53.108;6.308;2022-09-09T12:26:55;4.05;;;0.93;;
52396;SDS011;38322;53.108;6.308;2022-09-09T12:29:36;4.80;;;0.88;;
52396;SDS011;38322;53.108;6.308;2022-09-09T12:32:12;4.30;;;1.30;;
52396;SDS011;38322;53.108;6.308;2022-09-09T12:34:47;4.47;;;0.77;;
52396;SDS011;38322;53.108;6.308;2022-09-09T12:37:31;5.15;;;2.72;;
52396;SDS011;38322;53.108;6.308;2022-09-09T12:40:26;6.47;;;1.95;;
52396;SDS011;38322;53.108;6.308;2022-09-09T12:42:53;5.28;;;1.30;;
52396;SDS011;38322;53.108;6.308;2022-09-09T12:45:22;5.15;;;2.00;;
52396;SDS011;38322;53.108;6.308;2022-09-09T12:50:38;6.50;;;1.95;;
52396;SDS011;38322;53.108;6.308;2022-09-09T12:53:13;5.75;;;1.67;;
52396;SDS011;38322;53.108;6.308;2022-09-09T12:55:56;4.28;;;0.55;;
52396;SDS011;38322;53.108;6.308;2022-09-09T12:58:24;4.75;;;0.93;;
52396;SDS011;38322;53.108;6.308;2022-09-09T13:00:54;6.00;;;0.70;;
52396;SDS011;38322;53.108;6.308;2022-09-09T13:03:22;8.40;;;1.33;;
52396;SDS011;38322;53.108;6.308;2022-09-09T13:05:48;5.85;;;0.98;;
52396;SDS011;38322;53.108;6.308;2022-09-09T13:08:15;2.35;;;0.80;;
52396;SDS011;38322;53.108;6.308;2022-09-09T13:10:50;5.65;;;0.93;;
52396;SDS011;38322;53.108;6.308;2022-09-09T13:13:23;5.05;;;1.00;;
52396;SDS011;38322;53.108;6.308;2022-09-09T13:15:56;3.17;;;0.80;;
52396;SDS011;38322;53.108;6.308;2022-09-09T13:18:24;7.07;;;0.93;;
52396;SDS011;38322;53.108;6.308;2022-09-09T13:20:54;3.47;;;0.98;;
52396;SDS011;38322;53.108;6.308;2022-09-09T13:23:23;1.10;;;0.70;;
52396;SDS011;38322;53.108;6.308;2022-09-09T13:26:01;4.55;;;0.60;;
52396;SDS011;38322;53.108;6.308;2022-09-09T13:28:31;4.10;;;0.70;;
52396;SDS011;38322;53.108;6.308;2022-09-09T13:33:33;6.78;;;1.52;;
52396;SDS011;38322;53.108;6.308;2022-09-09T13:38:31;2.53;;;0.60;;
52396;SDS011;38322;53.108;6.308;2022-09-09T13:41:02;3.17;;;0.95;;
52396;SDS011;38322;53.108;6.308;2022-09-09T13:43:33;5.45;;;0.75;;
52396;SDS011;38322;53.108;6.308;2022-09-09T13:48:56;6.38;;;2.15;;
52396;SDS011;38322;53.108;6.308;2022-09-09T13:53:59;9.68;;;1.20;;
52396;SDS011;38322;53.108;6.308;2022-09-09T13:56:25;2.88;;;0.70;;
52396;SDS011;38322;53.108;6.308;2022-09-09T13:58:51;2.80;;;0.68;;
52396;SDS011;38322;53.108;6.308;2022-09-09T14:01:17;7.03;;;0.85;;
52396;SDS011;38322;53.108;6.308;2022-09-09T14:03:43;7.35;;;1.02;;
52396;SDS011;38322;53.108;6.308;2022-09-09T14:06:09;2.85;;;0.35;;
52396;SDS011;38322;53.108;6.308;2022-09-09T14:08:36;0.57;;;0.20;;
52396;SDS011;38322;53.108;6.308;2022-09-09T14:11:02;1.33;;;0.40;;
52396;SDS011;38322;53.108;6.308;2022-09-09T14:13:29;1.85;;;0.40;;
52396;SDS011;38322;53.108;6.308;2022-09-09T14:15:55;2.50;;;0.82;;
52396;SDS011;38322;53.108;6.308;2022-09-09T14:18:21;2.97;;;0.40;;
52396;SDS011;38322;53.108;6.308;2022-09-09T14:20:48;3.15;;;1.50;;
52396;SDS011;38322;53.108;6.308;2022-09-09T14:23:15;2.05;;;0.50;;
52396;SDS011;38322;53.108;6.308;2022-09-09T14:25:42;1.98;;;0.73;;
52396;SDS011;38322;53.108;6.308;2022-09-09T14:28:09;3.25;;;0.57;;
52396;SDS011;38322;53.108;6.308;2022-09-09T14:30:37;3.72;;;0.73;;
52396;SDS011;38322;53.108;6.308;2022-09-09T14:33:10;3.25;;;0.60;;
52396;SDS011;38322;53.108;6.308;2022-09-09T14:35:37;2.63;;;1.23;;
52396;SDS011;38322;53.108;6.308;2022-09-09T14:38:03;2.53;;;1.20;;
52396;SDS011;38322;53.108;6.308;2022-09-09T14:40:30;1.75;;;0.80;;
52396;SDS011;38322;53.108;6.308;2022-09-09T14:42:56;5.82;;;1.35;;
52396;SDS011;38322;53.108;6.308;2022-09-09T14:45:23;5.80;;;0.82;;
52396;SDS011;38322;53.108;6.308;2022-09-09T14:47:50;3.38;;;1.40;;
52396;SDS011;38322;53.108;6.308;2022-09-09T14:50:17;8.13;;;2.28;;
52396;SDS011;38322;53.108;6.308;2022-09-09T14:52:44;3.22;;;0.60;;
52396;SDS011;38322;53.108;6.308;2022-09-09T14:55:09;3.30;;;0.65;;
52396;SDS011;38322;53.108;6.308;2022-09-09T14:57:36;5.57;;;1.02;;
52396;SDS011;38322;53.108;6.308;2022-09-09T15:00:03;3.58;;;0.73;;
52396;SDS011;38322;53.108;6.308;2022-09-09T15:02:30;3.33;;;0.73;;
52396;SDS011;38322;53.108;6.308;2022-09-09T15:04:56;1.90;;;0.73;;
52396;SDS011;38322;53.108;6.308;2022-09-09T15:07:23;4.25;;;1.25;;
52396;SDS011;38322;53.108;6.308;2022-09-09T15:09:49;3.38;;;0.65;;
52396;SDS011;38322;53.108;6.308;2022-09-09T15:12:15;4.78;;;0.60;;
52396;SDS011;38322;53.108;6.308;2022-09-09T15:14:44;3.08;;;0.50;;
52396;SDS011;38322;53.108;6.308;2022-09-09T15:17:10;2.55;;;0.60;;
52396;SDS011;38322;53.108;6.308;2022-09-09T15:19:37;4.88;;;0.40;;
52396;SDS011;38322;53.108;6.308;2022-09-09T15:22:03;3.80;;;0.52;;
52396;SDS011;38322;53.108;6.308;2022-09-09T15:24:31;4.00;;;1.10;;
52396;SDS011;38322;53.108;6.308;2022-09-09T15:26:57;2.35;;;0.45;;
52396;SDS011;38322;53.108;6.308;2022-09-09T15:29:24;2.58;;;0.70;;
52396;SDS011;38322;53.108;6.308;2022-09-09T15:31:50;2.47;;;0.50;;
52396;SDS011;38322;53.108;6.308;2022-09-09T15:34:15;4.07;;;0.65;;
52396;SDS011;38322;53.108;6.308;2022-09-09T15:36:43;1.90;;;0.45;;
52396;SDS011;38322;53.108;6.308;2022-09-09T15:39:12;2.35;;;0.20;;
52396;SDS011;38322;53.108;6.308;2022-09-09T15:41:42;2.80;;;0.50;;
52396;SDS011;38322;53.108;6.308;2022-09-09T15:44:10;5.07;;;0.57;;
52396;SDS011;38322;53.108;6.308;2022-09-09T15:46:38;5.05;;;0.80;;
52396;SDS011;38322;53.108;6.308;2022-09-09T15:49:08;3.33;;;0.82;;
52396;SDS011;38322;53.108;6.308;2022-09-09T15:51:36;3.42;;;1.52;;
52396;SDS011;38322;53.108;6.308;2022-09-09T15:54:03;4.18;;;0.77;;
52396;SDS011;38322;53.108;6.308;2022-09-09T15:56:30;2.63;;;1.27;;
52396;SDS011;38322;53.108;6.308;2022-09-09T15:58:57;1.80;;;0.80;;
52396;SDS011;38322;53.108;6.308;2022-09-09T16:01:25;1.30;;;0.70;;
52396;SDS011;38322;53.108;6.308;2022-09-09T16:03:52;1.58;;;0.60;;
52396;SDS011;38322;53.108;6.308;2022-09-09T16:06:19;3.63;;;0.90;;
52396;SDS011;38322;53.108;6.308;2022-09-09T16:08:48;2.45;;;0.82;;
52396;SDS011;38322;53.108;6.308;2022-09-09T16:11:17;4.03;;;1.08;;
52396;SDS011;38322;53.108;6.308;2022-09-09T16:13:46;3.97;;;0.90;;
52396;SDS011;38322;53.108;6.308;2022-09-09T16:16:14;3.85;;;0.55;;
52396;SDS011;38322;53.108;6.308;2022-09-09T16:18:42;3.55;;;1.45;;
52396;SDS011;38322;53.108;6.308;2022-09-09T16:21:13;1.33;;;1.23;;
52396;SDS011;38322;53.108;6.308;2022-09-09T16:23:42;2.17;;;0.65;;
52396;SDS011;38322;53.108;6.308;2022-09-09T16:26:10;2.30;;;0.50;;
52396;SDS011;38322;53.108;6.308;2022-09-09T16:28:37;2.67;;;0.82;;
52396;SDS011;38322;53.108;6.308;2022-09-09T16:31:08;2.05;;;1.20;;
52396;SDS011;38322;53.108;6.308;2022-09-09T16:36:06;4.13;;;0.65;;
52396;SDS011;38322;53.108;6.308;2022-09-09T16:38:33;1.98;;;0.35;;
52396;SDS011;38322;53.108;6.308;2022-09-09T16:41:01;2.25;;;0.73;;
52396;SDS011;38322;53.108;6.308;2022-09-09T16:43:27;2.78;;;0.60;;
52396;SDS011;38322;53.108;6.308;2022-09-09T16:45:53;1.60;;;0.75;;
52396;SDS011;38322;53.108;6.308;2022-09-09T16:48:19;1.75;;;0.90;;
52396;SDS011;38322;53.108;6.308;2022-09-09T16:50:45;4.85;;;1.60;;
52396;SDS011;38322;53.108;6.308;2022-09-09T16:53:11;2.72;;;0.90;;
52396;SDS011;38322;53.108;6.308;2022-09-09T16:55:40;8.68;;;1.20;;
52396;SDS011;38322;53.108;6.308;2022-09-09T16:58:07;1.80;;;0.70;;
52396;SDS011;38322;53.108;6.308;2022-09-09T17:00:35;4.07;;;0.68;;
52396;SDS011;38322;53.108;6.308;2022-09-09T17:03:01;1.65;;;0.60;;
52396;SDS011;38322;53.108;6.308;2022-09-09T17:05:28;2.72;;;0.75;;
52396;SDS011;38322;53.108;6.308;2022-09-09T17:07:54;1.63;;;0.70;;
52396;SDS011;38322;53.108;6.308;2022-09-09T17:10:22;2.70;;;1.08;;
52396;SDS011;38322;53.108;6.308;2022-09-09T17:12:49;2.25;;;0.95;;
52396;SDS011;38322;53.108;6.308;2022-09-09T17:15:15;3.15;;;0.98;;
52396;SDS011;38322;53.108;6.308;2022-09-09T17:17:43;2.92;;;0.93;;
52396;SDS011;38322;53.108;6.308;2022-09-09T17:20:10;3.63;;;1.17;;
52396;SDS011;38322;53.108;6.308;2022-09-09T17:22:36;2.80;;;0.80;;
52396;SDS011;38322;53.108;6.308;2022-09-09T17:25:02;1.98;;;1.02;;
52396;SDS011;38322;53.108;6.308;2022-09-09T17:27:29;4.07;;;1.52;;
52396;SDS011;38322;53.108;6.308;2022-09-09T17:29:56;3.20;;;1.10;;
52396;SDS011;38322;53.108;6.308;2022-09-09T17:32:23;4.05;;;1.73;;
52396;SDS011;38322;53.108;6.308;2022-09-09T17:34:49;4.55;;;1.45;;
52396;SDS011;38322;53.108;6.308;2022-09-09T17:37:15;3.95;;;1.58;;
52396;SDS011;38322;53.108;6.308;2022-09-09T17:39:42;5.80;;;1.20;;
52396;SDS011;38322;53.108;6.308;2022-09-09T17:42:08;4.63;;;1.30;;
52396;SDS011;38322;53.108;6.308;2022-09-09T17:44:35;4.40;;;1.60;;
52396;SDS011;38322;53.108;6.308;2022-09-09T17:47:01;4.28;;;1.85;;
52396;SDS011;38322;53.108;6.308;2022-09-09T17:49:29;2.03;;;1.15;;
52396;SDS011;38322;53.108;6.308;2022-09-09T17:51:55;3.33;;;1.10;;
52396;SDS011;38322;53.108;6.308;2022-09-09T17:54:21;3.47;;;1.67;;
52396;SDS011;38322;53.108;6.308;2022-09-09T17:56:48;7.45;;;1.30;;
52396;SDS011;38322;53.108;6.308;2022-09-09T17:59:15;6.20;;;1.33;;
52396;SDS011;38322;53.108;6.308;2022-09-09T18:01:43;3.53;;;1.25;;
52396;SDS011;38322;53.108;6.308;2022-09-09T18:04:12;3.28;;;1.27;;
52396;SDS011;38322;53.108;6.308;2022-09-09T18:06:41;4.88;;;1.55;;
52396;SDS011;38322;53.108;6.308;2022-09-09T18:09:10;4.93;;;1.48;;
52396;SDS011;38322;53.108;6.308;2022-09-09T18:11:38;6.38;;;1.88;;
52396;SDS011;38322;53.108;6.308;2022-09-09T18:14:09;4.65;;;1.77;;
52396;SDS011;38322;53.108;6.308;2022-09-09T18:16:37;6.00;;;2.10;;
52396;SDS011;38322;53.108;6.308;2022-09-09T18:19:05;4.85;;;2.08;;
52396;SDS011;38322;53.108;6.308;2022-09-09T18:21:33;3.00;;;1.80;;
52396;SDS011;38322;53.108;6.308;2022-09-09T18:24:01;15.43;;;3.22;;
52396;SDS011;38322;53.108;6.308;2022-09-09T18:26:30;9.40;;;2.90;;
52396;SDS011;38322;53.108;6.308;2022-09-09T18:28:58;7.00;;;2.85;;
52396;SDS011;38322;53.108;6.308;2022-09-09T18:31:26;4.32;;;2.20;;
52396;SDS011;38322;53.108;6.308;2022-09-09T18:33:54;5.82;;;2.35;;
52396;SDS011;38322;53.108;6.308;2022-09-09T18:38:48;5.82;;;2.60;;
52396;SDS011;38322;53.108;6.308;2022-09-09T18:41:16;6.88;;;2.45;;
52396;SDS011;38322;53.108;6.308;2022-09-09T18:43:45;5.22;;;2.47;;
52396;SDS011;38322;53.108;6.308;2022-09-09T18:46:12;5.93;;;2.13;;
52396;SDS011;38322;53.108;6.308;2022-09-09T18:48:40;3.67;;;2.45;;
52396;SDS011;38322;53.108;6.308;2022-09-09T18:51:08;5.32;;;2.67;;
52396;SDS011;38322;53.108;6.308;2022-09-09T18:53:35;4.47;;;2.47;;
52396;SDS011;38322;53.108;6.308;2022-09-09T18:56:03;6.18;;;2.35;;
52396;SDS011;38322;53.108;6.308;2022-09-09T18:58:32;4.57;;;2.10;;
52396;SDS011;38322;53.108;6.308;2022-09-09T19:00:59;4.55;;;2.30;;
52396;SDS011;38322;53.108;6.308;2022-09-09T19:03:26;5.10;;;2.10;;
52396;SDS011;38322;53.108;6.308;2022-09-09T19:05:59;4.38;;;2.85;;
52396;SDS011;38322;53.108;6.308;2022-09-09T19:08:27;6.28;;;2.90;;
52396;SDS011;38322;53.108;6.308;2022-09-09T19:10:53;3.55;;;1.90;;
52396;SDS011;38322;53.108;6.308;2022-09-09T19:13:19;5.18;;;2.80;;
52396;SDS011;38322;53.108;6.308;2022-09-09T19:15:45;2.97;;;2.25;;
52396;SDS011;38322;53.108;6.308;2022-09-09T19:18:11;6.72;;;2.00;;
52396;SDS011;38322;53.108;6.308;2022-09-09T19:20:37;6.13;;;2.35;;
52396;SDS011;38322;53.108;6.308;2022-09-09T19:23:03;4.55;;;2.00;;
52396;SDS011;38322;53.108;6.308;2022-09-09T19:25:29;7.20;;;2.72;;
52396;SDS011;38322;53.108;6.308;2022-09-09T19:30:28;4.60;;;2.10;;
52396;SDS011;38322;53.108;6.308;2022-09-09T19:32:54;2.42;;;2.22;;
52396;SDS011;38322;53.108;6.308;2022-09-09T19:35:20;4.75;;;2.10;;
52396;SDS011;38322;53.108;6.308;2022-09-09T19:37:46;4.93;;;2.13;;
52396;SDS011;38322;53.108;6.308;2022-09-09T19:40:13;6.50;;;3.05;;
52396;SDS011;38322;53.108;6.308;2022-09-09T19:42:38;4.53;;;2.15;;
52396;SDS011;38322;53.108;6.308;2022-09-09T19:45:05;4.18;;;2.08;;
52396;SDS011;38322;53.108;6.308;2022-09-09T19:47:33;5.80;;;2.78;;
52396;SDS011;38322;53.108;6.308;2022-09-09T19:49:59;6.13;;;2.15;;
52396;SDS011;38322;53.108;6.308;2022-09-09T19:52:25;4.30;;;2.08;;
52396;SDS011;38322;53.108;6.308;2022-09-09T19:54:51;2.55;;;2.10;;
52396;SDS011;38322;53.108;6.308;2022-09-09T19:57:17;6.60;;;3.00;;
52396;SDS011;38322;53.108;6.308;2022-09-09T19:59:44;4.07;;;2.05;;
